Forest City, NC

5:32 AM EDT on August 28, 2015 (GMT -0400)
Forest City-Dunbar Elementary | | Change Station
CLOSE
Current Station
Personal Weather Station
Location: Forest City, NC
Elevation: 966 ft
Nearby Weather Stations

Elev 966 ft 35.35 °N, 81.87 °W | Updated 9 minutes ago

Clear
Clear
59.8 °F
Feels Like 59.8 °F
N
0.0
Wind Variable Wind from ESE
Gusts 0.0 mph

Today
High -- | Low -- °F
--% Chance of Precip.
Yesterday
High -- | Low -- °F
Precip. -- in
6:56 AM 8:00 PM
Waxing Gibbous, 97% visible
Pressure 30.16 in
Visibility 7.0 miles
Clouds Clear
Dew Point 59 °F
Humidity 96%
Rainfall 0.00 in
Snow Depth Not available.
UV 0 out of 12
Pollen 8.00 out of 12
Air Quality Not available.
Flu Activity Not available.
METAR KFQD 280915Z AUTO 32003KT 7SM CLR 17/17 A3016 RMK AO2 T01670166
Pressure 30.16 in
Visibility 7.0 miles
Clouds Clear
Dew Point 59 °F
Humidity 96%
Rainfall 0.00 in
Snow Depth Not available.
UV 0 out of 12
Pollen 8.00 out of 12
Air Quality Not available.
Flu Activity Not available.
METAR KFQD 280915Z AUTO 32003KT 7SM CLR 17/17 A3016 RMK AO2 T01670166

10-Day Weather Forecast

×

Almanac

Astronomy

Aug. 28, 2015 Rise Set
Actual Time
Civil Twilight
Nautical Twilight
Astronomical Twilight
Moon
Length of Visible Light
Length of Day
Tomorrow will be .
, % of the Moon is Illuminated

Today's Extremes

State Highs State Lows

Community

WunderPhotos

Upload Photos

1,850,352 photos uploaded!

WunderBlogs® & News

Nearby

Air Quality

  Air Quality AQ Index Pollutant
Not available.

Snow Depth

Station Depth Elevation

Earthquake Activity

City Distance Mag. Time & Date
Minimum magnitude displayed is 2.5.

Coastal Water Temperatures

Place Temperature

Stations

Nearby Weather Stations

Station Location Temp. Windchill Dew Point Humidity Wind Precip. Elev Updated Type